createdAt,value
2018-06-15T00:01:51.590Z,72.68
2018-06-15T00:04:19.233Z,72.57
2018-06-15T00:06:46.971Z,73.10
2018-06-15T00:09:14.653Z,73.35
2018-06-15T00:11:42.350Z,72.82
2018-06-15T00:14:10.027Z,73.45
2018-06-15T00:16:37.782Z,73.87
2018-06-15T00:19:05.649Z,73.89
2018-06-15T00:21:33.338Z,74.52
2018-06-15T00:24:01.041Z,74.21
2018-06-15T00:26:28.954Z,73.66
2018-06-15T00:28:56.651Z,73.20
2018-06-15T00:31:24.306Z,72.89
2018-06-15T00:33:52.035Z,72.93
2018-06-15T00:36:19.695Z,73.60
2018-06-15T00:38:47.381Z,73.31
2018-06-15T00:41:15.112Z,73.33
2018-06-15T00:43:42.881Z,73.21
2018-06-15T00:46:10.563Z,73.56
2018-06-15T00:48:38.511Z,73.60
2018-06-15T00:51:06.188Z,73.47
2018-06-15T00:53:33.854Z,74.43
2018-06-15T00:56:01.528Z,75.12
2018-06-15T00:58:29.237Z,74.19
2018-06-15T01:00:56.916Z,75.01
2018-06-15T01:03:24.579Z,74.44
2018-06-15T01:05:52.443Z,73.82
2018-06-15T01:08:20.095Z,74.16
2018-06-15T01:10:47.767Z,74.54
2018-06-15T01:13:15.494Z,74.14
2018-06-15T01:15:43.144Z,73.80
2018-06-15T01:18:10.822Z,73.99
2018-06-15T01:20:38.591Z,74.39
2018-06-15T01:23:06.276Z,75.26
2018-06-15T01:25:33.975Z,75.22
2018-06-15T01:28:01.658Z,74.62
2018-06-15T01:30:29.426Z,75.03
2018-06-15T01:32:57.113Z,75.12
2018-06-15T01:35:24.778Z,75.34
2018-06-15T01:37:52.498Z,75.80
2018-06-15T01:40:20.170Z,76.21
2018-06-15T01:42:47.847Z,75.84
2018-06-15T01:45:15.506Z,76.06
2018-06-15T01:47:43.214Z,76.79
2018-06-15T01:50:10.955Z,76.06
2018-06-15T01:52:38.681Z,76.10
2018-06-15T01:55:06.690Z,75.85
2018-06-15T01:57:34.357Z,76.29
2018-06-15T02:00:02.096Z,76.16
2018-06-15T02:02:29.807Z,76.57
2018-06-15T02:04:57.510Z,77.01
2018-06-15T02:07:25.182Z,76.77
2018-06-15T02:09:52.854Z,76.51
2018-06-15T02:12:20.579Z,76.79
2018-06-15T02:14:48.344Z,76.39
2018-06-15T02:17:16.000Z,76.53
2018-06-15T02:19:43.689Z,77.18
2018-06-15T02:22:11.378Z,77.70
2018-06-15T02:24:39.047Z,77.16
2018-06-15T02:27:06.751Z,77.38
2018-06-15T02:29:34.453Z,77.35
2018-06-15T02:32:02.167Z,77.42
2018-06-15T02:34:29.844Z,77.00
2018-06-15T02:36:57.571Z,76.85
2018-06-15T02:39:25.210Z,76.91
2018-06-15T02:41:52.906Z,76.97
2018-06-15T02:44:20.852Z,76.87
2018-06-15T02:46:48.516Z,76.08
2018-06-15T02:49:16.167Z,76.58
2018-06-15T02:51:43.943Z,77.04
2018-06-15T02:54:11.619Z,76.98
2018-06-15T02:56:39.408Z,77.16
2018-06-15T02:59:07.084Z,76.74
2018-06-15T03:01:34.746Z,76.47
2018-06-15T03:04:02.507Z,75.94
2018-06-15T03:06:30.175Z,75.27
2018-06-15T03:08:57.892Z,75.80
2018-06-15T03:11:25.553Z,76.58
2018-06-15T03:13:53.252Z,76.63
2018-06-15T03:16:20.967Z,76.70
2018-06-15T03:18:48.639Z,75.97
2018-06-15T03:21:16.335Z,75.54
2018-06-15T03:23:44.017Z,75.47
2018-06-15T03:26:11.708Z,75.02
2018-06-15T03:28:39.413Z,75.75
2018-06-15T03:31:07.136Z,76.01
2018-06-15T03:33:34.814Z,76.14
2018-06-15T03:36:02.555Z,76.65
2018-06-15T03:38:30.198Z,76.84
2018-06-15T03:40:57.890Z,76.96
2018-06-15T03:43:25.567Z,76.68
2018-06-15T03:45:53.254Z,76.34
2018-06-15T03:48:20.922Z,76.44
2018-06-15T03:50:48.626Z,76.61
2018-06-15T03:53:16.316Z,76.40
2018-06-15T03:55:44.011Z,75.83
2018-06-15T03:58:11.737Z,75.18
2018-06-15T04:00:39.388Z,75.70
2018-06-15T04:03:07.117Z,75.66
2018-06-15T04:05:34.803Z,75.54
2018-06-15T04:08:02.510Z,75.84
2018-06-15T04:10:30.213Z,76.29
2018-06-15T04:12:57.909Z,76.83
2018-06-15T04:15:25.850Z,77.00
2018-06-15T04:18:01.047Z,77.10
2018-06-15T04:20:28.827Z,77.04
2018-06-15T04:22:56.537Z,77.56
2018-06-15T04:25:24.209Z,77.74
2018-06-15T04:27:51.958Z,76.92
2018-06-15T04:30:19.619Z,76.66
2018-06-15T04:32:47.658Z,76.55
2018-06-15T04:35:15.344Z,77.10
2018-06-15T04:37:43.056Z,76.75
2018-06-15T04:40:10.762Z,76.68
2018-06-15T04:42:38.423Z,75.84
2018-06-15T04:45:06.134Z,75.44
2018-06-15T04:47:35.734Z,75.25
2018-06-15T04:50:03.786Z,74.70
2018-06-15T04:52:31.469Z,74.05
2018-06-15T04:54:59.145Z,74.52
2018-06-15T04:57:26.938Z,74.62
2018-06-15T04:59:54.642Z,73.16
2018-06-15T05:02:22.360Z,73.53
2018-06-15T05:04:50.036Z,74.02
2018-06-15T05:07:17.747Z,73.58
2018-06-15T05:09:45.482Z,72.81
2018-06-15T05:12:13.154Z,72.97
2018-06-15T05:14:40.897Z,72.95
2018-06-15T05:17:08.571Z,72.89
2018-06-15T05:19:36.302Z,72.50
2018-06-15T05:22:04.106Z,73.01
2018-06-15T05:24:31.804Z,72.25
2018-06-15T05:26:59.495Z,72.00
2018-06-15T05:29:27.159Z,72.27
2018-06-15T05:31:54.934Z,71.71
2018-06-15T05:34:22.826Z,70.74
2018-06-15T05:36:50.639Z,70.21
2018-06-15T05:39:18.318Z,69.63
2018-06-15T05:41:45.984Z,70.26
2018-06-15T05:44:13.683Z,69.41
2018-06-15T05:46:41.346Z,69.29
2018-06-15T05:49:09.031Z,69.56
2018-06-15T05:51:36.719Z,69.18
2018-06-15T05:54:04.708Z,68.87
2018-06-15T05:56:32.402Z,67.81
2018-06-15T05:59:00.054Z,67.73
2018-06-15T06:01:27.807Z,67.50
2018-06-15T06:03:55.483Z,66.99
2018-06-15T06:06:23.191Z,67.05
2018-06-15T06:08:50.898Z,67.27
2018-06-15T06:11:18.581Z,67.71
2018-06-15T06:13:46.612Z,67.12
2018-06-15T06:16:14.294Z,66.54
2018-06-15T06:18:41.997Z,66.95
2018-06-15T06:21:09.690Z,65.86
2018-06-15T06:23:37.370Z,65.62
2018-06-15T06:26:05.326Z,65.06
2018-06-15T06:28:33.014Z,64.85
2018-06-15T06:31:00.661Z,65.36
2018-06-15T06:33:28.364Z,65.47
2018-06-15T06:35:56.125Z,64.53
2018-06-15T06:38:23.837Z,64.35
2018-06-15T06:40:51.607Z,63.39
2018-06-15T06:43:19.315Z,64.06
2018-06-15T06:45:47.214Z,62.52
2018-06-15T06:48:14.917Z,62.92
2018-06-15T06:50:42.639Z,62.97
2018-06-15T06:53:10.371Z,61.63
2018-06-15T06:55:38.100Z,61.12
2018-06-15T06:58:05.819Z,59.30
2018-06-15T07:00:33.552Z,58.28
2018-06-15T07:03:01.266Z,58.65
2018-06-15T07:05:28.950Z,57.96
2018-06-15T07:07:56.726Z,58.18
2018-06-15T07:10:24.395Z,56.72
2018-06-15T07:12:52.119Z,57.31
2018-06-15T07:15:19.802Z,57.00
2018-06-15T07:17:47.491Z,56.69
2018-06-15T07:20:15.192Z,54.79
2018-06-15T07:22:43.518Z,55.72
2018-06-15T07:25:11.189Z,54.71
2018-06-15T07:27:38.905Z,55.22
2018-06-15T07:30:06.639Z,55.43
2018-06-15T07:32:34.314Z,52.67
2018-06-15T07:35:01.997Z,53.01
2018-06-15T07:37:29.725Z,52.14
2018-06-15T07:39:57.424Z,51.86
2018-06-15T07:42:25.151Z,52.87
2018-06-15T07:44:52.819Z,52.69
2018-06-15T07:47:20.596Z,51.51
2018-06-15T07:49:48.385Z,51.11
2018-06-15T07:52:16.345Z,50.87
2018-06-15T07:54:44.121Z,50.63
2018-06-15T07:57:11.849Z,49.00
2018-06-15T07:59:39.626Z,49.59
2018-06-15T08:02:07.427Z,49.05
2018-06-15T08:04:35.182Z,49.71
2018-06-15T08:07:02.958Z,47.13
2018-06-15T08:09:30.858Z,48.14
2018-06-15T08:11:58.582Z,47.18
2018-06-15T08:14:26.259Z,47.64
2018-06-15T08:16:53.942Z,47.06
2018-06-15T08:19:21.615Z,47.13
2018-06-15T08:21:49.285Z,46.27
2018-06-15T08:24:16.990Z,46.46
2018-06-15T08:26:44.701Z,46.41
2018-06-15T08:29:12.394Z,46.39
2018-06-15T08:31:40.190Z,43.63
2018-06-15T08:34:07.919Z,44.38
2018-06-15T08:36:35.663Z,43.29
2018-06-15T08:39:05.327Z,43.02
2018-06-15T08:41:33.032Z,41.87
2018-06-15T08:44:00.735Z,41.45
2018-06-15T08:46:28.406Z,40.30
2018-06-15T08:48:56.092Z,38.07
2018-06-15T08:51:23.810Z,38.78
2018-06-15T08:53:51.511Z,37.73
2018-06-15T08:56:19.150Z,38.85
2018-06-15T08:58:46.841Z,39.49
2018-06-15T09:01:14.574Z,39.08
2018-06-15T09:03:42.254Z,38.90
2018-06-15T09:06:10.025Z,38.46
2018-06-15T09:08:37.724Z,37.42
2018-06-15T09:11:05.431Z,35.80
2018-06-15T09:13:33.779Z,36.17
2018-06-15T09:16:01.471Z,36.25
2018-06-15T09:18:29.408Z,36.02
2018-06-15T09:20:57.126Z,35.26
2018-06-15T09:23:24.789Z,35.12
2018-06-15T09:25:53.391Z,34.45
2018-06-15T09:28:21.251Z,35.28
2018-06-15T09:30:49.251Z,34.27
2018-06-15T09:33:16.943Z,32.82
2018-06-15T09:35:44.622Z,32.67
2018-06-15T09:38:12.375Z,32.69
2018-06-15T09:40:40.029Z,32.13
2018-06-15T09:43:07.729Z,33.16
2018-06-15T09:45:35.836Z,32.53
2018-06-15T09:48:03.578Z,33.33
2018-06-15T09:50:31.307Z,33.98
2018-06-15T09:52:58.977Z,33.31
2018-06-15T09:55:26.659Z,32.51
2018-06-15T09:57:54.355Z,31.35
2018-06-15T10:00:27.586Z,31.23
2018-06-15T10:02:55.298Z,31.95
2018-06-15T10:05:22.978Z,31.48
2018-06-15T10:07:51.840Z,31.54
2018-06-15T10:10:19.531Z,29.90
2018-06-15T10:12:47.239Z,29.02
2018-06-15T10:15:14.995Z,30.03
2018-06-15T10:17:42.706Z,28.15
2018-06-15T10:20:10.404Z,27.72
2018-06-15T10:22:38.163Z,27.99
2018-06-15T10:25:05.883Z,27.21
2018-06-15T10:27:33.881Z,27.42
2018-06-15T10:30:01.584Z,26.94
2018-06-15T10:32:29.367Z,26.24
2018-06-15T10:34:57.053Z,26.74
2018-06-15T10:37:24.799Z,27.46
2018-06-15T10:39:52.551Z,26.22
2018-06-15T10:42:20.369Z,26.57
2018-06-15T10:44:48.174Z,27.00
2018-06-15T10:47:15.871Z,26.68
2018-06-15T10:49:43.704Z,26.72
2018-06-15T10:52:12.077Z,26.80
2018-06-15T10:54:39.788Z,27.15
2018-06-15T10:57:07.731Z,27.75
2018-06-15T10:59:35.397Z,26.20
2018-06-15T11:02:03.278Z,26.89
2018-06-15T11:04:31.015Z,26.91
2018-06-15T11:06:59.284Z,26.47
2018-06-15T11:09:27.163Z,27.43
2018-06-15T11:11:55.571Z,27.31
2018-06-15T11:14:23.265Z,26.88
2018-06-15T11:16:51.031Z,27.40
2018-06-15T11:19:18.770Z,26.51
2018-06-15T11:21:46.562Z,28.78
2018-06-15T11:24:14.606Z,28.09
2018-06-15T11:26:42.293Z,27.17
2018-06-15T11:29:10.032Z,26.96
2018-06-15T11:31:38.080Z,26.81
2018-06-15T11:34:05.824Z,27.51
2018-06-15T11:36:33.524Z,27.85
2018-06-15T11:39:01.239Z,27.87
2018-06-15T11:41:29.011Z,28.02
2018-06-15T11:43:56.941Z,28.40
2018-06-15T11:46:24.622Z,30.93
2018-06-15T11:48:52.314Z,30.24
2018-06-15T11:51:20.078Z,29.62
2018-06-15T11:53:47.846Z,32.32
2018-06-15T11:56:15.542Z,32.93
2018-06-15T11:58:43.290Z,33.31
2018-06-15T12:01:11.212Z,33.63
2018-06-15T12:03:38.984Z,32.29
2018-06-15T12:06:06.686Z,32.76
2018-06-15T12:08:34.392Z,31.68
2018-06-15T12:11:02.127Z,33.62
2018-06-15T12:13:29.825Z,33.76
2018-06-15T12:15:57.561Z,32.73
2018-06-15T12:18:25.279Z,34.34
2018-06-15T12:20:52.987Z,33.92
2018-06-15T12:23:20.711Z,34.88
2018-06-15T12:25:48.411Z,34.65
2018-06-15T12:28:16.703Z,34.47
2018-06-15T12:30:44.434Z,34.34
2018-06-15T12:33:12.156Z,33.82
2018-06-15T12:35:39.866Z,33.61
2018-06-15T12:38:07.624Z,33.17
2018-06-15T12:40:37.119Z,33.93
2018-06-15T12:43:06.586Z,32.82
2018-06-15T12:45:38.814Z,35.06
2018-06-15T12:48:06.576Z,36.27
2018-06-15T12:50:34.278Z,35.86
2018-06-15T12:53:02.012Z,35.37
2018-06-15T12:55:29.714Z,35.44
2018-06-15T12:57:57.472Z,35.11
2018-06-15T13:00:25.219Z,35.73
2018-06-15T13:02:53.143Z,33.87
2018-06-15T13:05:20.821Z,35.19
2018-06-15T13:07:48.558Z,35.97
2018-06-15T13:10:16.308Z,35.55
2018-06-15T13:12:44.034Z,36.12
2018-06-15T13:15:11.742Z,37.50
2018-06-15T13:17:39.435Z,35.54
2018-06-15T13:20:07.151Z,36.91
2018-06-15T13:22:34.889Z,38.22
2018-06-15T13:25:02.650Z,37.10
2018-06-15T13:27:30.374Z,37.08
2018-06-15T13:29:58.126Z,37.48
2018-06-15T13:32:25.851Z,37.92
2018-06-15T13:34:53.543Z,37.88
2018-06-15T13:37:21.436Z,37.34
2018-06-15T13:39:49.698Z,37.46
2018-06-15T13:42:17.386Z,37.87
2018-06-15T13:44:45.106Z,37.14
2018-06-15T13:47:12.828Z,37.80
2018-06-15T13:49:40.616Z,38.23
2018-06-15T13:52:08.363Z,37.27
2018-06-15T13:54:36.093Z,38.17
2018-06-15T13:57:03.795Z,37.21
2018-06-15T13:59:31.537Z,37.54
2018-06-15T14:01:59.234Z,39.00
2018-06-15T14:04:26.992Z,39.19
2018-06-15T14:06:54.714Z,38.56
2018-06-15T14:09:22.421Z,38.61
2018-06-15T14:11:50.111Z,38.04
2018-06-15T14:14:17.773Z,37.52
2018-06-15T14:16:45.629Z,38.23
2018-06-15T14:19:18.227Z,39.34
2018-06-15T14:21:46.055Z,38.32
2018-06-15T14:24:13.715Z,37.54
2018-06-15T14:26:41.447Z,37.51
2018-06-15T14:29:10.034Z,37.11
2018-06-15T14:31:37.730Z,37.87
2018-06-15T14:34:05.464Z,37.47
2018-06-15T14:36:33.188Z,36.75
2018-06-15T14:39:00.982Z,38.32
2018-06-15T14:41:28.754Z,37.88
2018-06-15T14:43:56.477Z,37.73
2018-06-15T14:46:24.188Z,36.67
2018-06-15T14:48:51.938Z,37.26
2018-06-15T14:51:19.657Z,39.07
2018-06-15T14:53:47.380Z,38.36
2018-06-15T14:56:15.056Z,38.20
2018-06-15T14:58:42.785Z,39.08
2018-06-15T15:01:10.547Z,39.38
2018-06-15T15:03:38.303Z,37.49
2018-06-15T15:06:06.031Z,38.60
2018-06-15T15:08:33.797Z,38.20
2018-06-15T15:11:01.517Z,38.00
2018-06-15T15:13:29.266Z,38.31
2018-06-15T15:15:56.983Z,37.90
2018-06-15T15:18:24.688Z,37.94
2018-06-15T15:20:52.398Z,38.73
2018-06-15T15:23:20.067Z,39.45
2018-06-15T15:25:47.744Z,40.39
2018-06-15T15:28:15.532Z,39.60
2018-06-15T15:30:43.247Z,39.53
2018-06-15T15:33:10.983Z,40.34
2018-06-15T15:35:38.691Z,39.71
2018-06-15T15:38:06.419Z,39.62
2018-06-15T15:40:34.163Z,38.86
2018-06-15T15:43:02.179Z,39.67
2018-06-15T15:45:29.903Z,39.47
2018-06-15T15:47:57.614Z,39.63
2018-06-15T15:50:25.398Z,39.75
2018-06-15T15:52:53.130Z,39.10
2018-06-15T15:55:20.839Z,40.26
2018-06-15T15:57:48.567Z,40.38
2018-06-15T16:00:16.304Z,40.55
2018-06-15T16:02:44.030Z,39.59
2018-06-15T16:05:11.776Z,40.02
2018-06-15T16:07:39.555Z,40.66
2018-06-15T16:10:07.245Z,40.10
2018-06-15T16:12:34.995Z,39.72
2018-06-15T16:15:02.703Z,39.96
2018-06-15T16:17:30.406Z,40.12
2018-06-15T16:19:58.124Z,40.78
2018-06-15T16:22:25.808Z,40.19
2018-06-15T16:24:53.888Z,40.03
2018-06-15T16:27:21.602Z,38.74
2018-06-15T16:29:49.285Z,40.72
2018-06-15T16:32:17.002Z,40.54
2018-06-15T16:34:44.707Z,40.34
2018-06-15T16:37:12.437Z,40.55
2018-06-15T16:39:40.114Z,40.32
2018-06-15T16:42:07.802Z,39.93
2018-06-15T16:44:35.527Z,40.78
2018-06-15T16:47:03.204Z,41.07
2018-06-15T16:49:30.892Z,39.63
2018-06-15T16:51:58.649Z,40.86
2018-06-15T16:54:26.393Z,40.45
2018-06-15T16:56:54.140Z,41.93
2018-06-15T16:59:21.834Z,40.96
2018-06-15T17:01:49.530Z,41.98
2018-06-15T17:04:17.272Z,41.51
2018-06-15T17:06:44.971Z,41.80
2018-06-15T17:09:12.734Z,41.21
2018-06-15T17:11:40.459Z,42.05
2018-06-15T17:14:08.176Z,41.59
2018-06-15T17:16:35.864Z,41.95
2018-06-15T17:19:03.580Z,41.58
2018-06-15T17:21:31.316Z,42.25
2018-06-15T17:23:59.018Z,42.44
2018-06-15T17:26:26.781Z,42.16
2018-06-15T17:28:54.540Z,41.62
2018-06-15T17:31:22.294Z,42.45
2018-06-15T17:33:50.145Z,42.71
2018-06-15T17:36:17.838Z,42.89
2018-06-15T17:38:45.570Z,43.55
2018-06-15T17:41:13.491Z,43.30
2018-06-15T17:43:41.179Z,43.20
2018-06-15T17:46:08.925Z,43.34
2018-06-15T17:48:36.669Z,43.70
2018-06-15T17:51:04.704Z,43.72
2018-06-15T17:53:32.366Z,43.72
2018-06-15T17:56:00.110Z,43.00
2018-06-15T17:58:27.793Z,43.23
2018-06-15T18:00:55.838Z,43.30
2018-06-15T18:03:23.577Z,43.01
2018-06-15T18:05:51.303Z,43.27
2018-06-15T18:08:19.010Z,43.55
2018-06-15T18:10:46.950Z,42.90
2018-06-15T18:13:15.057Z,43.69
2018-06-15T18:15:42.761Z,44.18
2018-06-15T18:18:10.433Z,44.20
2018-06-15T18:20:38.157Z,44.27
2018-06-15T18:23:05.855Z,44.28
2018-06-15T18:25:33.720Z,45.01
2018-06-15T18:28:01.419Z,44.62
2018-06-15T18:30:29.139Z,43.92
2018-06-15T18:32:56.844Z,44.15
2018-06-15T18:35:24.591Z,44.13
2018-06-15T18:37:52.329Z,44.32
2018-06-15T18:40:20.148Z,43.81
2018-06-15T18:42:47.881Z,43.95
2018-06-15T18:45:15.579Z,44.47
2018-06-15T18:47:43.298Z,45.00
2018-06-15T18:50:10.991Z,45.39
2018-06-15T18:52:38.912Z,44.70
2018-06-15T18:55:06.803Z,45.42
2018-06-15T18:57:34.509Z,45.50
2018-06-15T19:00:02.292Z,46.00
2018-06-15T19:02:29.989Z,45.32
2018-06-15T19:04:57.727Z,45.76
2018-06-15T19:07:25.463Z,45.53
2018-06-15T19:09:53.444Z,45.68
2018-06-15T19:12:21.214Z,46.11
2018-06-15T19:14:48.913Z,46.13
2018-06-15T19:17:16.658Z,46.19
2018-06-15T19:19:44.457Z,46.51
2018-06-15T19:22:12.141Z,46.95
2018-06-15T19:24:39.993Z,46.94
2018-06-15T19:27:07.768Z,47.11
2018-06-15T19:29:35.499Z,47.26
2018-06-15T19:32:03.251Z,47.30
2018-06-15T19:34:30.969Z,46.44
2018-06-15T19:36:58.702Z,45.58
2018-06-15T19:39:26.397Z,45.75
2018-06-15T19:41:54.142Z,46.49
2018-06-15T19:44:21.850Z,45.97
2018-06-15T19:46:49.557Z,47.83
2018-06-15T19:49:17.272Z,47.80
2018-06-15T19:51:44.972Z,48.95
2018-06-15T19:54:12.710Z,49.34
2018-06-15T19:56:40.407Z,50.08
2018-06-15T19:59:08.108Z,50.54
2018-06-15T20:01:35.853Z,50.84
2018-06-15T20:04:03.834Z,51.25
2018-06-15T20:06:31.592Z,51.55
2018-06-15T20:08:59.299Z,51.42
2018-06-15T20:11:27.116Z,50.85
2018-06-15T20:13:54.798Z,50.87
2018-06-15T20:16:22.540Z,50.85
2018-06-15T20:18:50.272Z,50.43
2018-06-15T20:21:17.965Z,51.71
2018-06-15T20:23:45.694Z,52.52
2018-06-15T20:26:13.374Z,51.77
2018-06-15T20:28:42.198Z,52.31
2018-06-15T20:31:09.960Z,52.28
2018-06-15T20:33:37.667Z,53.79
2018-06-15T20:36:05.474Z,53.79
2018-06-15T20:38:33.102Z,54.60
2018-06-15T20:41:00.938Z,53.88
2018-06-15T20:43:28.630Z,54.39
2018-06-15T20:45:56.374Z,54.74
2018-06-15T20:48:24.104Z,55.32
2018-06-15T20:50:51.834Z,55.47
2018-06-15T20:53:19.574Z,55.24
2018-06-15T20:55:47.328Z,55.92
2018-06-15T20:58:15.055Z,56.14
2018-06-15T21:00:42.942Z,57.50
2018-06-15T21:03:10.675Z,57.48
2018-06-15T21:05:38.383Z,57.60
2018-06-15T21:08:06.519Z,57.72
2018-06-15T21:10:34.634Z,58.29
2018-06-15T21:13:02.374Z,59.26
2018-06-15T21:15:30.092Z,58.68
2018-06-15T21:17:57.803Z,59.69
2018-06-15T21:20:25.587Z,58.95
2018-06-15T21:22:53.399Z,59.20
2018-06-15T21:25:21.130Z,59.17
2018-06-15T21:27:48.832Z,59.98
2018-06-15T21:30:16.908Z,60.83
2018-06-15T21:32:44.643Z,60.62
2018-06-15T21:35:12.638Z,59.81
2018-06-15T21:37:40.462Z,60.19
2018-06-15T21:40:08.208Z,60.41
2018-06-15T21:42:35.928Z,61.54
2018-06-15T21:45:03.666Z,61.20
2018-06-15T21:47:31.346Z,61.13
2018-06-15T21:49:59.066Z,61.86
2018-06-15T21:52:26.768Z,62.13
2018-06-15T21:54:54.589Z,62.58
2018-06-15T21:57:22.301Z,62.79
2018-06-15T21:59:49.992Z,63.03
2018-06-15T22:02:17.737Z,63.24
2018-06-15T22:04:45.425Z,63.34
2018-06-15T22:07:13.147Z,62.99
2018-06-15T22:09:40.876Z,63.48
2018-06-15T22:12:08.576Z,64.34
2018-06-15T22:14:36.289Z,64.80
2018-06-15T22:17:04.090Z,64.43
2018-06-15T22:19:31.790Z,64.89
2018-06-15T22:21:59.512Z,65.37
2018-06-15T22:24:27.235Z,65.05
2018-06-15T22:26:54.942Z,64.57
2018-06-15T22:29:22.674Z,64.71
2018-06-15T22:31:50.389Z,64.75
2018-06-15T22:34:18.126Z,64.27
2018-06-15T22:36:45.793Z,64.66
2018-06-15T22:39:14.674Z,64.26
2018-06-15T22:41:42.637Z,64.46
2018-06-15T22:44:11.031Z,64.57
2018-06-15T22:46:39.206Z,64.72
2018-06-15T22:49:07.479Z,65.25
2018-06-15T22:51:35.159Z,64.88
2018-06-15T22:54:03.245Z,65.32
2018-06-15T22:56:31.059Z,65.66
2018-06-15T22:58:59.058Z,64.82
2018-06-15T23:01:26.708Z,65.03
2018-06-15T23:03:54.497Z,64.98
2018-06-15T23:06:22.183Z,65.15
2018-06-15T23:08:50.208Z,64.66
2018-06-15T23:11:17.939Z,64.90
2018-06-15T23:13:45.686Z,65.17
2018-06-15T23:16:13.372Z,64.97
2018-06-15T23:18:41.122Z,65.01
2018-06-15T23:21:08.829Z,65.04
2018-06-15T23:23:36.524Z,65.06
2018-06-15T23:26:04.287Z,64.25
2018-06-15T23:28:32.106Z,64.51
2018-06-15T23:31:00.056Z,64.66
2018-06-15T23:33:27.749Z,64.77
2018-06-15T23:35:55.534Z,64.73
2018-06-15T23:38:23.211Z,64.96
2018-06-15T23:40:50.874Z,65.84
2018-06-15T23:43:18.889Z,65.06
2018-06-15T23:45:46.619Z,65.68
2018-06-15T23:48:14.407Z,65.54
2018-06-15T23:50:42.090Z,65.39
2018-06-15T23:53:09.846Z,65.08
2018-06-15T23:55:37.503Z,65.41
2018-06-15T23:58:05.234Z,65.89
